Time;durP1;ratioP1;P1;durP2;ratioP2;P2;SDS_P1;SDS_P2;PMS_P1;PMS_P2;Temp;Humidity;BMP_temperature;BMP_pressure;BME280_temperature;BME280_humidity;BME280_pressure;Samples;Min_cycle;Max_cycle;Signal;HPM_P1;HPM_P2
2022/06/02 00:00:46;;;;;;;4.40;1.30;;;;;;;16.20;44.99;101255.47;4976791;28;20050;-70
2022/06/02 00:03:24;;;;;;;5.20;1.50;;;;;;;15.91;45.43;101257.44;4974685;28;20066;-64
2022/06/02 00:05:59;;;;;;;6.13;1.65;;;;;;;16.00;45.55;101258.22;4976297;28;20062;-70
2022/06/02 00:08:43;;;;;;;5.25;1.23;;;;;;;16.15;45.37;101257.63;4991136;28;20066;-69
2022/06/02 00:11:47;;;;;;;5.13;1.67;;;;;;;16.00;45.71;101263.78;4974901;28;20066;-70
2022/06/02 00:14:19;;;;;;;6.22;1.67;;;;;;;15.77;46.30;101263.25;4976669;28;20422;-69
2022/06/02 00:17:20;;;;;;;4.70;1.30;;;;;;;15.87;46.01;101262.88;4975165;28;20054;-72
2022/06/02 00:19:57;;;;;;;3.85;1.52;;;;;;;16.12;45.60;101269.41;4976035;28;20055;-71
2022/06/02 00:22:52;;;;;;;6.32;1.52;;;;;;;16.00;45.86;101272.13;4975089;28;20059;-70
2022/06/02 00:25:27;;;;;;;6.43;1.75;;;;;;;15.73;46.58;101277.00;4991243;28;20073;-69
2022/06/02 00:28:16;;;;;;;4.75;1.50;;;;;;;15.69;46.82;101278.81;4991096;28;20509;-69
2022/06/02 00:30:58;;;;;;;7.55;1.60;;;;;;;15.94;46.28;101279.00;4975199;28;20057;-69
2022/06/02 00:34:09;;;;;;;3.55;1.27;;;;;;;15.87;46.47;101281.50;4990988;28;20059;-69
2022/06/02 00:37:04;;;;;;;3.53;1.20;;;;;;;15.76;46.73;101273.53;4962871;28;20067;-70
2022/06/02 00:39:33;;;;;;;5.72;1.58;;;;;;;15.68;46.87;101273.59;4976177;28;20059;-70
2022/06/02 00:42:12;;;;;;;7.82;1.50;;;;;;;16.03;46.39;101277.00;4976095;28;20057;-70
2022/06/02 00:44:45;;;;;;;4.53;1.98;;;;;;;15.87;46.74;101270.38;4976287;28;20053;-69
2022/06/02 00:47:35;;;;;;;3.50;1.67;;;;;;;15.85;46.82;101267.16;4975445;28;20061;-70
2022/06/02 00:50:08;;;;;;;6.60;1.50;;;;;;;15.77;46.97;101269.63;4976382;28;20487;-69
2022/06/02 00:53:08;;;;;;;7.55;1.70;;;;;;;15.79;47.03;101269.28;4959126;28;20038;-70
2022/06/02 00:59:07;;;;;;;2.97;1.40;;;;;;;15.73;47.25;101273.41;4975919;28;20062;-70
2022/06/02 01:01:36;;;;;;;7.47;1.80;;;;;;;15.78;47.30;101262.91;4976027;28;20054;-69
2022/06/02 01:04:09;;;;;;;4.13;1.48;;;;;;;15.67;47.38;101260.88;4975783;28;20055;-70
2022/06/02 01:06:50;;;;;;;5.75;1.70;;;;;;;15.66;47.80;101268.38;4974229;28;20482;-70
2022/06/02 01:09:39;;;;;;;5.68;1.70;;;;;;;15.76;47.68;101269.94;4975972;28;20061;-69
2022/06/02 01:12:56;;;;;;;3.92;1.73;;;;;;;15.53;47.92;101266.63;4973804;28;20414;-69
2022/06/02 01:15:42;;;;;;;6.95;1.63;;;;;;;15.55;48.16;101257.97;5001197;28;20078;-63
2022/06/02 01:18:33;;;;;;;4.35;1.67;;;;;;;15.42;48.79;101259.00;4975446;28;20049;-62
2022/06/02 01:21:12;;;;;;;5.28;1.95;;;;;;;15.38;48.79;101255.22;4974208;28;20055;-63
2022/06/02 01:24:04;;;;;;;4.32;1.75;;;;;;;15.55;48.45;101258.78;4975819;28;20055;-63
2022/06/02 01:26:50;;;;;;;3.65;1.77;;;;;;;15.53;48.50;101263.84;4975669;28;20043;-70
2022/06/02 01:29:51;;;;;;;7.53;1.70;;;;;;;15.57;48.43;101264.00;4991349;28;20537;-69
2022/06/02 01:32:25;;;;;;;9.40;1.90;;;;;;;15.38;49.21;101256.03;4993600;28;20047;-69
2022/06/02 01:35:03;;;;;;;3.63;1.80;;;;;;;15.23;49.35;101259.38;4993896;28;20434;-69
2022/06/02 01:37:45;;;;;;;7.75;1.85;;;;;;;15.18;49.80;101262.31;4978864;28;20626;-71
2022/06/02 01:40:37;;;;;;;7.93;1.95;;;;;;;15.30;49.60;101259.69;4979207;28;20054;-70
2022/06/02 01:43:18;;;;;;;9.10;4.10;;;;;;;15.51;49.05;101257.84;4979339;28;20051;-64
2022/06/02 01:46:30;;;;;;;9.60;3.05;;;;;;;15.36;49.41;101265.88;4962103;28;20042;-69
2022/06/02 01:49:33;;;;;;;5.63;2.08;;;;;;;15.30;49.58;101264.41;4976203;28;20059;-63
2022/06/02 01:52:42;;;;;;;13.48;5.25;;;;;;;15.42;49.46;101273.72;4993590;28;20046;-70
2022/06/02 01:55:26;;;;;;;5.15;2.10;;;;;;;15.58;48.96;101274.78;4978523;28;20050;-71
2022/06/02 01:57:54;;;;;;;7.43;1.90;;;;;;;15.48;49.29;101263.22;4978756;28;20058;-63
2022/06/02 02:00:26;;;;;;;3.78;1.35;;;;;;;15.33;49.80;101275.66;4978829;28;20507;-63
2022/06/02 02:03:20;;;;;;;7.20;2.05;;;;;;;15.16;50.05;101277.66;4962257;28;20530;-63
2022/06/02 02:06:06;;;;;;;4.20;1.98;;;;;;;15.33;49.92;101275.66;4978795;28;20509;-71
2022/06/02 02:09:02;;;;;;;3.83;1.90;;;;;;;15.31;49.82;101272.41;4977144;28;20058;-69
2022/06/02 02:11:41;;;;;;;7.80;1.70;;;;;;;15.47;49.62;101269.91;4993377;28;20047;-69
2022/06/02 02:14:14;;;;;;;4.43;1.88;;;;;;;15.24;50.01;101266.53;4978974;28;20058;-69
2022/06/02 02:16:51;;;;;;;5.28;1.95;;;;;;;15.13;50.29;101268.03;4993108;28;20063;-70
2022/06/02 02:19:29;;;;;;;5.30;2.08;;;;;;;15.02;50.71;101269.53;4972832;28;20062;-64
2022/06/02 02:21:59;;;;;;;6.97;2.03;;;;;;;14.94;50.92;101270.34;4976956;28;20058;-70
2022/06/02 02:24:34;;;;;;;6.85;2.30;;;;;;;14.87;51.50;101267.25;4978489;28;20072;-64
2022/06/02 02:27:31;;;;;;;4.22;2.00;;;;;;;15.07;50.76;101261.03;4941783;29;20043;-71
2022/06/02 02:30:11;;;;;;;7.00;2.47;;;;;;;14.90;51.13;101263.84;4940991;29;20418;-70
2022/06/02 02:33:17;;;;;;;6.28;1.85;;;;;;;14.99;51.08;101267.44;4957385;29;20055;-71
2022/06/02 02:36:00;;;;;;;5.70;1.90;;;;;;;15.16;50.72;101264.63;4956186;29;20051;-69
2022/06/02 02:38:37;;;;;;;8.15;2.28;;;;;;;15.32;50.06;101260.16;4956153;29;20078;-71
2022/06/02 02:41:11;;;;;;;7.47;2.15;;;;;;;15.34;49.95;101257.84;4946362;29;20059;-63
2022/06/02 02:43:52;;;;;;;6.07;2.30;;;;;;;15.22;50.64;101257.72;4958696;29;20404;-69
2022/06/02 02:46:35;;;;;;;6.18;1.95;;;;;;;15.25;50.47;101262.63;4957464;29;20047;-70
2022/06/02 02:49:14;;;;;;;4.63;2.10;;;;;;;14.87;51.54;101267.25;4958381;29;20495;-64
2022/06/02 02:52:02;;;;;;;12.25;2.88;;;;;;;14.58;52.62;101289.31;4973171;28;20051;-66
2022/06/02 02:54:42;;;;;;;5.13;2.03;;;;;;;14.83;52.20;101276.59;4972780;28;20572;-63
2022/06/02 02:57:43;;;;;;;6.90;2.35;;;;;;;14.64;52.52;101277.72;4973077;28;20111;-63
2022/06/02 03:00:21;;;;;;;9.40;2.38;;;;;;;14.87;51.94;101270.03;4957217;28;20062;-63
2022/06/02 03:03:03;;;;;;;4.05;2.08;;;;;;;14.52;52.80;101274.00;4958116;29;20132;-70
2022/06/02 03:05:44;;;;;;;8.77;2.30;;;;;;;14.68;52.53;101275.13;4958352;29;20434;-69
2022/06/02 03:08:22;;;;;;;5.47;2.53;;;;;;;14.71;52.63;101274.50;4956661;29;20547;-63
2022/06/02 03:10:55;;;;;;;9.90;2.35;;;;;;;14.68;52.35;101273.16;4958112;29;20051;-62
2022/06/02 03:13:38;;;;;;;6.38;2.30;;;;;;;14.69;52.57;101265.69;4941087;29;20063;-70
2022/06/02 03:16:08;;;;;;;4.85;2.13;;;;;;;14.65;52.98;101264.69;4957859;29;20495;-70
2022/06/02 03:18:38;;;;;;;10.10;2.85;;;;;;;14.63;52.84;101255.88;4959369;28;20061;-70
2022/06/02 03:21:05;;;;;;;4.70;2.30;;;;;;;14.58;53.06;101269.91;4977259;28;20047;-69
2022/06/02 03:23:39;;;;;;;6.93;2.10;;;;;;;14.39;53.52;101273.03;4977489;28;20057;-69
2022/06/02 03:26:28;;;;;;;5.53;2.42;;;;;;;14.50;53.15;101279.88;4960232;28;20054;-63
2022/06/02 03:29:07;;;;;;;7.20;2.55;;;;;;;14.68;52.79;101291.75;4975530;28;20055;-63
2022/06/02 03:31:49;;;;;;;5.47;2.28;;;;;;;14.68;52.61;101280.66;4959853;28;20055;-70
2022/06/02 03:34:37;;;;;;;6.18;2.70;;;;;;;14.78;52.55;101279.53;4961115;28;20414;-70
2022/06/02 03:37:17;;;;;;;6.95;2.30;;;;;;;14.53;53.21;101287.53;4959302;28;20051;-69
2022/06/02 03:40:22;;;;;;;5.90;2.30;;;;;;;14.46;53.28;101287.22;4976965;28;20149;-62
2022/06/02 03:42:58;;;;;;;8.48;2.63;;;;;;;14.47;53.54;101288.03;4959999;28;20047;-62
2022/06/02 03:45:47;;;;;;;5.82;2.33;;;;;;;14.45;53.57;101293.88;4975631;28;20514;-69
2022/06/02 03:48:20;;;;;;;6.88;2.47;;;;;;;14.14;54.61;101284.06;4976392;28;20074;-63
2022/06/02 03:51:08;;;;;;;6.78;2.47;;;;;;;14.40;53.92;101284.94;4976676;28;20066;-64
2022/06/02 03:53:39;;;;;;;5.35;2.60;;;;;;;14.13;54.83;101276.88;4958435;28;20486;-63
2022/06/02 03:56:23;;;;;;;;;;;;;;;14.21;54.46;101273.31;4977283;28;20054;-63
2022/06/02 03:59:16;;;;;;;7.10;2.70;;;;;;;14.30;54.26;101279.69;4975176;28;19929;-64
2022/06/02 04:01:52;;;;;;;9.70;2.88;;;;;;;14.39;54.12;101273.03;4975117;28;20070;-63
2022/06/02 04:04:38;;;;;;;6.85;2.60;;;;;;;14.31;54.31;101273.81;4975111;28;20426;-70
2022/06/02 04:07:27;;;;;;;10.18;3.13;;;;;;;14.25;54.58;101283.41;4975406;28;20497;-62
2022/06/02 04:10:19;;;;;;;6.88;2.50;;;;;;;13.99;55.11;101281.72;4975467;28;20058;-69
2022/06/02 04:15:55;;;;;;;4.97;2.38;;;;;;;14.37;54.00;101285.56;4976328;28;20398;-69
2022/06/02 04:18:34;;;;;;;6.72;3.05;;;;;;;14.37;54.00;101288.31;4974887;28;20051;-69
2022/06/02 04:21:22;;;;;;;8.30;3.13;;;;;;;14.08;54.91;101300.00;4975159;28;20425;-70
2022/06/02 04:24:05;;;;;;;4.53;2.47;;;;;;;14.25;54.98;101297.25;4974275;28;20058;-65
2022/06/02 04:26:51;;;;;;;8.45;2.95;;;;;;;14.40;54.16;101301.56;4958926;28;20043;-64
2022/06/02 04:29:45;;;;;;;5.18;2.70;;;;;;;14.60;53.49;101301.72;4975036;28;20054;-64
2022/06/02 04:32:28;;;;;;;5.80;2.70;;;;;;;14.96;52.70;101295.03;4941167;28;20062;-62
2022/06/02 04:35:13;;;;;;;8.80;3.08;;;;;;;14.91;52.73;101312.63;4976244;28;20059;-70
2022/06/02 04:37:53;;;;;;;8.98;3.55;;;;;;;14.91;52.78;101320.13;4976130;28;20050;-69
2022/06/02 04:40:38;;;;;;;7.25;2.80;;;;;;;14.95;52.61;101310.03;4975193;28;20598;-69
2022/06/02 04:43:08;;;;;;;6.97;2.80;;;;;;;14.58;53.21;101305.94;4975886;28;20065;-72
2022/06/02 04:45:58;;;;;;;;;;;;;;;14.75;52.79;101307.94;4958805;28;20506;-64
2022/06/02 04:48:53;;;;;;;6.38;3.00;;;;;;;14.89;52.64;101312.13;4976064;28;19922;-62
2022/06/02 04:51:57;;;;;;;12.35;4.05;;;;;;;15.06;51.98;101306.59;4976090;28;20074;-63
2022/06/02 04:54:41;;;;;;;8.52;2.90;;;;;;;15.04;51.78;101300.56;4975972;28;20058;-71
2022/06/02 04:57:19;;;;;;;4.88;2.50;;;;;;;15.28;50.94;101303.59;4958701;28;20517;-69
2022/06/02 04:59:46;;;;;;;9.98;2.83;;;;;;;15.22;51.21;101312.44;4974817;28;20101;-62
2022/06/02 05:02:43;;;;;;;9.75;3.08;;;;;;;14.93;52.17;101299.25;4974598;28;20061;-69
2022/06/02 05:05:15;;;;;;;8.75;2.97;;;;;;;15.09;51.81;101300.38;4969648;28;20434;-70
2022/06/02 05:08:04;;;;;;;6.47;3.40;;;;;;;15.31;51.05;101299.31;4978498;28;20054;-70
2022/06/02 05:10:53;;;;;;;9.60;3.07;;;;;;;15.45;50.60;101286.91;4979735;28;20055;-64
2022/06/02 05:13:36;;;;;;;12.95;3.97;;;;;;;15.47;50.15;101298.50;4962591;28;20046;-70
2022/06/02 05:16:24;;;;;;;6.25;2.88;;;;;;;15.55;49.96;101291.31;4977584;28;20063;-71
2022/06/02 05:19:30;;;;;;;6.95;3.17;;;;;;;15.26;50.57;101297.56;4972346;28;20065;-70
2022/06/02 05:22:35;;;;;;;9.93;2.80;;;;;;;15.50;50.25;101302.56;4906096;29;20074;-71
2022/06/02 05:25:21;;;;;;;6.32;2.90;;;;;;;15.65;49.53;101291.75;4925414;29;20397;-70
2022/06/02 05:28:07;;;;;;;10.55;3.30;;;;;;;15.65;49.70;101291.75;4960373;29;20058;-70
2022/06/02 05:30:43;;;;;;;10.45;3.28;;;;;;;15.80;49.50;101287.56;4959908;29;20054;-71
2022/06/02 05:33:11;;;;;;;6.78;2.92;;;;;;;15.58;49.60;101298.97;4958550;29;20055;-70
2022/06/02 05:35:56;;;;;;;8.05;3.53;;;;;;;15.58;49.76;101287.84;4959965;29;20047;-70
2022/06/02 05:39:01;;;;;;;6.43;2.97;;;;;;;15.46;50.04;101296.06;4968990;28;20070;-69
2022/06/02 05:42:00;;;;;;;6.57;2.88;;;;;;;15.53;49.84;101297.16;4978893;28;20388;-70
2022/06/02 05:44:40;;;;;;;11.05;2.95;;;;;;;15.48;50.00;101297.34;4978874;28;20058;-70
2022/06/02 05:47:30;;;;;;;6.32;3.03;;;;;;;15.62;49.80;101289.63;4979056;28;20054;-71
2022/06/02 05:50:29;;;;;;;7.30;3.00;;;;;;;15.59;49.87;101297.78;4962805;28;20054;-71
2022/06/02 05:53:27;;;;;;;8.95;4.07;;;;;;;15.52;49.85;101301.09;4961702;28;20047;-70
2022/06/02 05:55:54;;;;;;;6.65;2.88;;;;;;;15.61;49.98;101310.22;4961533;28;20502;-64
2022/06/02 05:58:31;;;;;;;7.45;3.13;;;;;;;15.79;49.59;101305.41;4978969;28;20487;-64
2022/06/02 06:01:12;;;;;;;5.82;3.15;;;;;;;15.77;49.43;101291.84;4978912;28;20047;-65
2022/06/02 06:03:52;;;;;;;7.95;3.28;;;;;;;15.85;49.48;101287.38;4978367;28;20407;-64
2022/06/02 06:07:05;;;;;;;5.40;2.90;;;;;;;15.91;49.01;101290.78;4978650;28;20054;-64
2022/06/02 06:10:08;;;;;;;7.70;3.28;;;;;;;15.89;49.01;101293.09;4946595;28;20517;-64
2022/06/02 06:12:57;;;;;;;10.25;3.30;;;;;;;15.69;49.29;101306.56;4978935;28;20061;-64
2022/06/02 06:15:42;;;;;;;8.48;3.50;;;;;;;15.81;49.36;101313.41;4977586;28;20062;-67
2022/06/02 06:18:22;;;;;;;7.05;3.22;;;;;;;15.83;49.39;101311.09;4978408;28;20065;-71
2022/06/02 06:21:05;;;;;;;8.27;3.13;;;;;;;15.98;49.02;101308.56;4958997;29;20055;-70
2022/06/02 06:23:54;;;;;;;7.63;3.33;;;;;;;16.11;48.67;101295.59;4957771;29;20216;-71
2022/06/02 06:26:28;;;;;;;9.38;3.22;;;;;;;16.11;48.60;101296.38;4973904;28;20058;-70
2022/06/02 06:29:17;;;;;;;5.43;3.40;;;;;;;16.18;48.50;101302.22;4958825;29;20055;-72
2022/06/02 06:31:59;;;;;;;12.90;3.67;;;;;;;16.00;48.95;101294.34;4958199;28;20052;-70
2022/06/02 06:34:36;;;;;;;10.48;3.50;;;;;;;15.73;49.65;101293.66;4958696;29;20517;-70
2022/06/02 06:37:21;;;;;;;11.25;3.70;;;;;;;15.69;49.97;101284.34;4973519;28;20061;-64
2022/06/02 06:40:13;;;;;;;14.57;4.28;;;;;;;15.71;50.21;101298.72;4959134;29;20055;-64
2022/06/02 06:43:25;;;;;;;22.10;4.20;;;;;;;15.89;50.04;101301.41;4958717;29;20062;-63
2022/06/02 06:46:37;;;;;;;8.15;3.80;;;;;;;16.06;49.40;101299.38;4948896;29;20066;-64
2022/06/02 06:49:19;;;;;;;18.52;4.65;;;;;;;15.67;50.58;101306.09;4936252;29;20422;-70
2022/06/02 06:52:12;;;;;;;9.15;3.60;;;;;;;15.74;50.51;101302.81;4958694;29;20053;-63
2022/06/02 06:54:57;;;;;;;10.65;4.20;;;;;;;15.96;50.07;101307.28;4958340;29;20050;-64
2022/06/02 06:57:47;;;;;;;8.25;4.28;;;;;;;16.35;49.14;101304.88;4958599;29;20755;-64
2022/06/02 07:00:21;;;;;;;11.82;4.43;;;;;;;16.33;49.14;101304.44;4941577;29;20063;-64
2022/06/02 07:03:13;;;;;;;9.55;3.75;;;;;;;16.50;48.74;101306.28;4957207;29;20499;-65
2022/06/02 07:05:46;;;;;;;8.05;3.90;;;;;;;16.49;48.60;101313.81;4973293;28;20136;-70
2022/06/02 07:08:34;;;;;;;13.18;4.10;;;;;;;16.66;48.21;101308.16;4957223;29;20047;-70
2022/06/02 07:11:07;;;;;;;10.48;3.80;;;;;;;16.75;47.91;101306.06;4972882;28;20055;-63
2022/06/02 07:13:38;;;;;;;8.70;3.80;;;;;;;16.55;48.16;101311.66;4957889;29;20070;-63
2022/06/02 07:16:10;;;;;;;;;;;;;;;16.51;48.13;101316.28;4973289;28;20051;-64
2022/06/02 07:18:55;;;;;;;9.40;3.97;;;;;;;16.64;48.20;101320.75;4956218;29;20002;-64
2022/06/02 07:21:27;;;;;;;9.38;3.75;;;;;;;16.63;48.13;101313.56;4956747;29;20055;-64
2022/06/02 07:24:13;;;;;;;10.63;3.33;;;;;;;17.04;47.23;101310.75;4940832;29;20522;-64
2022/06/02 07:27:06;;;;;;;14.23;4.03;;;;;;;17.15;46.69;101319.47;4956177;28;20491;-71
2022/06/02 07:30:03;;;;;;;11.18;3.78;;;;;;;17.25;46.46;101307.91;4941007;29;20058;-70
2022/06/02 07:32:55;;;;;;;12.18;3.65;;;;;;;17.53;45.31;101314.50;4957691;29;20062;-62
2022/06/02 07:35:47;;;;;;;16.20;3.80;;;;;;;17.44;45.29;101317.34;4957562;29;20055;-64
2022/06/02 07:38:38;;;;;;;11.13;4.10;;;;;;;17.55;45.75;101324.16;4957347;29;20062;-64
2022/06/02 07:41:25;;;;;;;;;;;;;;;17.93;44.89;101319.09;4972792;28;20058;-63
2022/06/02 07:44:19;;;;;;;12.57;4.25;;;;;;;18.30;44.11;101311.50;4940299;29;19930;-63
2022/06/02 07:46:46;;;;;;;11.50;3.83;;;;;;;18.89;42.65;101322.88;4956132;29;20055;-64
2022/06/02 07:49:41;;;;;;;12.05;3.38;;;;;;;19.13;41.62;101319.16;4956098;29;20125;-65
2022/06/02 07:52:33;;;;;;;9.35;3.10;;;;;;;19.19;41.83;101318.59;4940289;29;20511;-64
2022/06/02 07:55:31;;;;;;;13.70;3.95;;;;;;;18.96;41.37;101317.50;4956008;29;20087;-64
2022/06/02 07:58:16;;;;;;;10.93;3.78;;;;;;;18.94;41.83;101315.09;4957140;29;20047;-65
2022/06/02 08:00:51;;;;;;;10.43;3.35;;;;;;;19.12;41.30;101307.22;4957067;29;20055;-64
2022/06/02 08:03:33;;;;;;;7.25;3.25;;;;;;;18.98;41.27;101304.84;4940536;29;20056;-64
2022/06/02 08:06:12;;;;;;;11.25;3.35;;;;;;;18.61;42.42;101305.31;4971980;28;20051;-64
2022/06/02 08:09:19;;;;;;;13.55;2.90;;;;;;;19.05;41.69;101301.44;4957255;29;20055;-64
2022/06/02 08:11:58;;;;;;;7.57;2.33;;;;;;;18.80;41.16;101299.88;4957289;29;20075;-65
2022/06/02 08:14:40;;;;;;;9.93;2.58;;;;;;;18.64;41.46;101287.84;4956276;29;20070;-65
2022/06/02 08:17:22;;;;;;;7.60;2.00;;;;;;;19.13;40.83;101294.03;4957179;29;20055;-64
2022/06/02 08:20:11;;;;;;;8.32;2.00;;;;;;;19.17;40.82;101281.81;4956001;29;20059;-64
2022/06/02 08:22:49;;;;;;;6.93;1.95;;;;;;;19.45;39.79;101279.81;4957104;29;20506;-64
2022/06/02 08:25:24;;;;;;;9.60;2.30;;;;;;;19.59;39.47;101270.97;4956132;29;20066;-64
2022/06/02 08:28:14;;;;;;;9.35;2.00;;;;;;;19.54;38.80;101277.66;4940844;29;20058;-64
2022/06/02 08:30:53;;;;;;;5.25;2.40;;;;;;;18.92;40.02;101271.91;4955741;28;20070;-64
2022/06/02 08:33:35;;;;;;;8.35;2.75;;;;;;;18.61;40.89;101280.19;4957048;29;20047;-65
2022/06/02 08:36:13;;;;;;;6.65;2.10;;;;;;;18.55;40.62;101268.47;4956961;29;20062;-63
2022/06/02 08:38:56;;;;;;;8.50;2.25;;;;;;;18.72;40.49;101265.41;4951007;28;20047;-66
2022/06/02 08:41:40;;;;;;;7.13;2.65;;;;;;;18.72;40.48;101268.19;4963119;28;20495;-64
2022/06/02 08:44:37;;;;;;;13.30;2.13;;;;;;;18.99;40.22;101269.34;4978891;28;20051;-64
2022/06/02 08:47:29;;;;;;;6.72;1.92;;;;;;;18.78;40.26;101274.31;4962816;28;20063;-63
2022/06/02 08:50:25;;;;;;;8.63;1.80;;;;;;;19.00;40.02;101271.75;4979884;28;20383;-64
2022/06/02 08:52:58;;;;;;;5.60;1.77;;;;;;;18.88;39.77;101268.25;4979826;28;20471;-64
2022/06/02 08:56:02;;;;;;;13.38;2.75;;;;;;;18.82;40.40;101264.06;4979708;28;20065;-64
2022/06/02 08:59:01;;;;;;;5.97;1.92;;;;;;;18.98;39.89;101262.13;4979964;28;20584;-65
2022/06/02 09:01:31;;;;;;;8.70;1.75;;;;;;;18.89;40.30;101259.50;4978476;28;20077;-64
2022/06/02 09:04:31;;;;;;;5.80;2.00;;;;;;;19.03;40.51;101259.91;4979667;28;20066;-65
2022/06/02 09:07:20;;;;;;;8.77;2.40;;;;;;;19.25;40.02;101255.69;4979705;28;20059;-64
2022/06/02 09:10:41;;;;;;;7.00;1.85;;;;;;;19.43;39.64;101256.19;4979373;28;20136;-63
2022/06/02 09:13:21;;;;;;;6.53;1.80;;;;;;;19.57;39.46;101259.34;4978433;28;20050;-65
2022/06/02 09:16:22;;;;;;;9.50;2.15;;;;;;;19.75;39.04;101260.63;4979544;28;20426;-65
2022/06/02 09:19:05;;;;;;;10.40;1.95;;;;;;;19.58;39.07;101261.00;4974768;28;20043;-64
2022/06/02 09:22:04;;;;;;;7.10;3.05;;;;;;;19.66;39.38;101254.38;4993786;28;20074;-64
2022/06/02 09:24:47;;;;;;;11.68;1.90;;;;;;;19.62;39.10;101251.50;4979443;28;20057;-65
2022/06/02 09:27:31;;;;;;;7.95;2.30;;;;;;;19.67;38.88;101254.03;4994204;28;20062;-63
2022/06/02 09:30:15;;;;;;;8.80;2.33;;;;;;;19.54;39.62;101254.50;4978927;28;20467;-64
2022/06/02 09:32:55;;;;;;;7.35;1.83;;;;;;;19.91;39.37;101251.00;4993743;28;20055;-65
2022/06/02 09:35:29;;;;;;;10.27;2.22;;;;;;;20.32;38.88;101254.38;4979354;28;20054;-65
2022/06/02 09:38:20;;;;;;;11.68;2.42;;;;;;;20.17;38.49;101251.25;4960155;28;20523;-65
2022/06/02 09:40:48;;;;;;;9.23;2.60;;;;;;;20.01;38.63;101255.25;4977598;28;20440;-64
2022/06/02 09:43:59;;;;;;;7.07;1.90;;;;;;;19.67;39.63;101261.59;4978894;28;20059;-65
2022/06/02 09:46:29;;;;;;;8.57;1.95;;;;;;;19.62;39.50;101262.69;4909968;28;20509;-65
2022/06/02 09:49:51;;;;;;;5.25;2.15;;;;;;;19.56;39.05;101264.13;4978784;28;20055;-65
2022/06/02 09:52:38;;;;;;;3.65;1.60;;;;;;;19.69;39.30;101257.28;4978986;28;20054;-65
2022/06/02 09:55:29;;;;;;;4.80;1.70;;;;;;;19.74;38.92;101256.19;4962139;28;20062;-65
2022/06/02 09:58:35;;;;;;;5.10;1.90;;;;;;;20.13;38.28;101255.13;4977562;28;20069;-64
2022/06/02 10:01:18;;;;;;;6.60;1.63;;;;;;;20.34;37.19;101250.06;4946138;28;20059;-65
2022/06/02 10:04:04;;;;;;;5.70;1.55;;;;;;;20.36;37.46;101246.88;4993481;28;20059;-67
2022/06/02 10:07:08;;;;;;;5.50;1.60;;;;;;;20.45;36.79;101244.69;4976626;28;20073;-65
2022/06/02 10:09:54;;;;;;;5.97;1.90;;;;;;;20.22;37.36;101252.16;4978424;28;20066;-64
2022/06/02 10:15:58;;;;;;;5.55;1.83;;;;;;;19.83;37.64;101245.63;4977386;28;20058;-66
2022/06/02 10:18:26;;;;;;;5.88;1.52;;;;;;;20.07;37.51;101229.44;4978139;28;20059;-66
2022/06/02 10:21:08;;;;;;;4.97;1.70;;;;;;;20.15;37.37;101230.41;4978349;28;20065;-64
2022/06/02 10:24:17;;;;;;;6.90;2.20;;;;;;;20.38;36.76;101225.75;4978496;28;20054;-65
2022/06/02 10:27:11;;;;;;;7.15;2.00;;;;;;;20.32;36.44;101224.44;4955727;28;20441;-64
2022/06/02 10:30:07;;;;;;;6.43;2.10;;;;;;;20.33;36.08;101225.25;4976973;28;20169;-65
2022/06/02 10:32:53;;;;;;;6.07;1.52;;;;;;;20.59;36.97;101223.38;4960669;28;20051;-65
2022/06/02 10:36:03;;;;;;;5.35;1.88;;;;;;;20.62;37.36;101228.28;4978230;28;20050;-64
2022/06/02 10:38:52;;;;;;;4.88;1.58;;;;;;;20.41;37.04;101233.41;4973842;28;20051;-66
2022/06/02 10:41:47;;;;;;;13.27;1.95;;;;;;;20.10;37.22;101220.31;4992389;28;20059;-65
2022/06/02 10:44:19;;;;;;;8.68;2.70;;;;;;;20.31;37.30;101224.78;4978071;28;20050;-65
2022/06/02 10:47:05;;;;;;;5.32;1.65;;;;;;;20.40;36.14;101225.41;4976819;28;20047;-64
2022/06/02 10:49:36;;;;;;;8.93;1.92;;;;;;;20.40;36.03;101223.38;4978084;28;20495;-64
2022/06/02 10:52:06;;;;;;;;;;;;;;;20.49;35.57;101229.59;4978251;28;20418;-63
2022/06/02 10:54:50;;;;;;;7.18;1.98;;;;;;;20.39;36.34;101218.97;4976647;28;19929;-65
2022/06/02 10:57:49;;;;;;;4.65;1.80;;;;;;;20.51;35.59;101207.63;4977747;28;20062;-65
2022/06/02 11:00:49;;;;;;;5.40;2.10;;;;;;;20.79;35.46;101211.00;4976447;28;20051;-64
2022/06/02 11:03:31;;;;;;;8.27;1.70;;;;;;;20.98;35.76;101197.00;4976043;28;20080;-65
2022/06/02 11:06:40;;;;;;;7.65;1.70;;;;;;;20.99;35.83;101186.63;4977352;28;20054;-64
2022/06/02 11:09:33;;;;;;;6.75;2.85;;;;;;;21.14;35.81;101197.72;4952732;28;20499;-64
2022/06/02 11:12:13;;;;;;;8.18;1.63;;;;;;;20.99;35.21;101201.41;4976202;28;20463;-64
2022/06/02 11:15:06;;;;;;;4.50;1.70;;;;;;;21.27;35.32;101193.53;4976190;28;20066;-66
2022/06/02 11:18:02;;;;;;;5.22;1.70;;;;;;;21.37;35.23;101192.09;4975992;28;20051;-64
2022/06/02 11:21:17;;;;;;;2.33;1.30;;;;;;;21.38;35.22;101190.91;4973017;28;20078;-64
2022/06/02 11:24:09;;;;;;;6.38;2.25;;;;;;;21.27;34.86;101184.31;4930249;28;20618;-65
2022/06/02 11:26:45;;;;;;;4.93;1.80;;;;;;;21.14;35.37;101185.69;4975955;28;20058;-64
2022/06/02 11:29:50;;;;;;;6.25;1.88;;;;;;;21.18;35.62;101181.75;4976871;28;20077;-64
2022/06/02 11:32:35;;;;;;;7.47;1.52;;;;;;;21.36;35.85;101175.66;4975288;28;20054;-65
2022/06/02 11:35:53;;;;;;;7.10;1.67;;;;;;;21.49;35.94;101168.66;4977359;28;20059;-70
2022/06/02 11:38:45;;;;;;;5.93;1.65;;;;;;;21.81;35.37;101159.59;4897636;29;20055;-70
2022/06/02 11:41:37;;;;;;;4.97;1.83;;;;;;;22.02;34.71;101153.50;4898229;29;20056;-71
2022/06/02 11:44:09;;;;;;;4.63;1.75;;;;;;;21.94;34.39;101158.19;4938143;28;20058;-70
2022/06/02 11:47:01;;;;;;;2.95;1.58;;;;;;;22.19;34.27;101155.72;4943156;28;20062;-71
2022/06/02 11:49:59;;;;;;;5.45;1.80;;;;;;;22.40;34.08;101160.78;4959713;28;20055;-69
2022/06/02 11:52:44;;;;;;;5.50;1.52;;;;;;;21.97;33.46;101159.41;4976304;28;20055;-70
2022/06/02 11:55:43;;;;;;;5.03;1.42;;;;;;;21.69;33.99;101153.38;4991733;28;20061;-70
2022/06/02 11:58:30;;;;;;;6.53;1.67;;;;;;;21.93;33.58;101150.16;4975683;28;20509;-70
2022/06/02 12:01:17;;;;;;;6.25;1.98;;;;;;;21.97;33.29;101140.59;4991393;28;20050;-70
2022/06/02 12:04:10;;;;;;;7.22;1.80;;;;;;;21.74;33.64;101150.25;4976455;28;20125;-71
2022/06/02 12:06:47;;;;;;;5.15;1.73;;;;;;;21.75;33.85;101152.66;4959125;28;20059;-69
2022/06/02 12:09:52;;;;;;;7.97;2.20;;;;;;;21.71;33.54;101150.97;4976794;28;20061;-70
2022/06/02 12:12:56;;;;;;;10.32;2.50;;;;;;;21.73;33.73;101138.22;4976490;28;20414;-71
2022/06/02 12:15:33;;;;;;;7.07;2.20;;;;;;;22.04;33.32;101132.25;4976596;28;20054;-71
2022/06/02 12:18:16;;;;;;;4.85;1.60;;;;;;;22.30;32.88;101123.78;4991639;28;20057;-71
2022/06/02 12:21:16;;;;;;;4.18;1.40;;;;;;;22.54;32.51;101114.06;4990856;28;20055;-70
2022/06/02 12:24:04;;;;;;;9.93;1.40;;;;;;;22.43;32.50;101117.91;4974962;28;20055;-70
2022/06/02 12:27:01;;;;;;;7.47;1.40;;;;;;;22.12;32.76;101119.94;4976155;28;20502;-70
2022/06/02 12:29:56;;;;;;;6.55;1.65;;;;;;;22.03;33.13;101107.41;4976591;28;20054;-71
2022/06/02 12:32:57;;;;;;;5.68;1.77;;;;;;;22.26;33.21;101103.28;4958548;28;20058;-70
2022/06/02 12:35:48;;;;;;;5.40;1.70;;;;;;;22.56;32.74;101094.03;4975291;28;20051;-71
2022/06/02 12:38:57;;;;;;;11.23;1.33;;;;;;;22.89;32.10;101077.88;4990987;28;20059;-69
2022/06/02 12:42:13;;;;;;;4.53;1.50;;;;;;;23.03;31.45;101082.84;4972984;28;20059;-69
2022/06/02 12:44:47;;;;;;;4.03;1.50;;;;;;;22.83;31.31;101089.88;4974291;28;20054;-70
2022/06/02 12:47:21;;;;;;;5.45;1.67;;;;;;;22.71;31.55;101090.97;4976310;28;20069;-70
2022/06/02 12:50:29;;;;;;;5.45;1.52;;;;;;;22.79;31.58;101084.22;4975394;28;20068;-69
2022/06/02 12:53:22;;;;;;;3.30;1.95;;;;;;;22.97;31.36;101071.16;4964715;28;20074;-70
2022/06/02 12:56:25;;;;;;;6.38;1.40;;;;;;;23.34;31.04;101077.47;4958789;28;20055;-70
2022/06/02 12:59:08;;;;;;;6.95;1.67;;;;;;;22.93;30.64;101078.75;4976560;28;20053;-69
2022/06/02 13:02:04;;;;;;;5.60;1.50;;;;;;;23.06;30.89;101080.06;4975998;28;20124;-69
2022/06/02 13:04:31;;;;;;;3.45;1.40;;;;;;;23.15;30.61;101071.31;4974583;28;20054;-71